Time;durP1;ratioP1;P1;durP2;ratioP2;P2;SDS_P1;SDS_P2;PMS_P1;PMS_P2;Temp;Humidity;BMP_temperature;BMP_pressure;BME280_temperature;BME280_humidity;BME280_pressure;Samples;Min_cycle;Max_cycle;Signal;HPM_P1;HPM_P2
2023/05/17 00:02:20;;;;;;;21.02;4.75;;;9.50;99.90;;;;;;5027353;28;20416;-78
2023/05/17 00:04:45;;;;;;;18.60;4.97;;;9.40;99.90;;;;;;5046999;28;20430;-78
2023/05/17 00:07:11;;;;;;;24.02;5.45;;;9.40;99.90;;;;;;5047760;28;20451;-79
2023/05/17 00:09:37;;;;;;;27.90;7.03;;;9.40;99.90;;;;;;5061836;28;20425;-77
2023/05/17 00:12:02;;;;;;;17.88;4.68;;;9.30;99.90;;;;;;5031684;28;20425;-77
2023/05/17 00:14:28;;;;;;;18.30;4.43;;;9.30;99.90;;;;;;5046703;28;20453;-80
2023/05/17 00:16:54;;;;;;;25.95;6.38;;;9.30;99.90;;;;;;5046301;28;20417;-77
2023/05/17 00:19:20;;;;;;;21.87;4.97;;;9.30;99.90;;;;;;5036421;28;20431;-78
2023/05/17 00:21:45;;;;;;;30.90;6.63;;;9.30;99.90;;;;;;5045534;28;20423;-79
2023/05/17 00:24:11;;;;;;;20.85;4.88;;;9.30;99.90;;;;;;5049102;28;20812;-78
2023/05/17 00:26:36;;;;;;;22.13;5.03;;;9.70;99.90;;;;;;5047428;28;20425;-79
2023/05/17 00:29:02;;;;;;;26.37;5.87;;;9.30;99.90;;;;;;5048720;28;20760;-79
2023/05/17 00:31:28;;;;;;;22.40;5.07;;;9.10;99.90;;;;;;5045847;28;20518;-77
2023/05/17 00:33:53;;;;;;;21.63;4.77;;;9.10;99.90;;;;;;5046372;28;20433;-77
2023/05/17 00:36:19;;;;;;;20.35;4.40;;;9.00;99.90;;;;;;5044613;28;20424;-78
2023/05/17 00:38:45;;;;;;;25.92;5.55;;;9.10;99.90;;;;;;5046788;28;20465;-77
2023/05/17 00:41:11;;;;;;;17.77;4.17;;;9.00;99.90;;;;;;5045991;28;20425;-77
2023/05/17 00:43:38;;;;;;;25.88;6.25;;;9.00;99.90;;;;;;5049261;28;20437;-79
2023/05/17 00:46:03;;;;;;;26.98;5.57;;;9.00;99.90;;;;;;5060508;28;20494;-77
2023/05/17 00:48:29;;;;;;;20.70;4.25;;;9.00;99.90;;;;;;5045601;28;20433;-77
2023/05/17 00:50:57;;;;;;;22.23;5.22;;;9.00;99.90;;;;;;5044876;28;20428;-75
2023/05/17 00:53:23;;;;;;;27.40;5.35;;;9.00;99.90;;;;;;5043774;28;20489;-75
2023/05/17 00:55:49;;;;;;;21.83;4.97;;;9.00;99.90;;;;;;5046515;28;20426;-76
2023/05/17 00:58:15;;;;;;;24.63;5.72;;;9.00;99.90;;;;;;5012000;28;20501;-76
2023/05/17 01:00:41;;;;;;;23.33;4.82;;;9.70;99.90;;;;;;5042369;28;20604;-76
2023/05/17 01:03:07;;;;;;;20.65;4.25;;;9.20;99.90;;;;;;5046292;28;20540;-77
2023/05/17 01:05:33;;;;;;;22.52;5.35;;;9.20;99.90;;;;;;5044279;28;20508;-74
2023/05/17 01:07:59;;;;;;;22.13;4.60;;;9.30;99.90;;;;;;5045459;28;20417;-75
2023/05/17 01:10:36;;;;;;;23.23;5.60;;;9.20;99.90;;;;;;5043293;28;20469;-77
2023/05/17 01:13:10;;;;;;;23.65;4.30;;;9.20;99.90;;;;;;5045006;28;20425;-77
2023/05/17 01:15:41;;;;;;;18.42;4.95;;;9.10;99.90;;;;;;5044972;28;20520;-77
2023/05/17 01:18:25;;;;;;;16.63;3.75;;;9.00;99.90;;;;;;5046179;28;20425;-77
2023/05/17 01:20:53;;;;;;;20.75;5.13;;;9.00;99.90;;;;;;5039894;28;20834;-78
2023/05/17 01:23:55;;;;;;;21.13;4.40;;;9.10;99.90;;;;;;5027935;28;20433;-79
2023/05/17 01:26:42;;;;;;;19.23;4.10;;;9.10;99.90;;;;;;5006691;28;20753;-78
2023/05/17 01:29:09;;;;;;;22.15;3.63;;;9.60;99.90;;;;;;5046249;28;20448;-78
2023/05/17 01:31:38;;;;;;;26.67;6.45;;;9.10;99.90;;;;;;5042837;28;21104;-79
2023/05/17 01:34:08;;;;;;;21.75;4.88;;;9.10;99.90;;;;;;5042564;28;20429;-79
2023/05/17 01:36:34;;;;;;;26.30;4.53;;;9.10;99.90;;;;;;5045962;28;20532;-78
2023/05/17 01:39:00;;;;;;;17.33;3.70;;;9.10;99.90;;;;;;5044566;28;21013;-76
2023/05/17 01:41:43;;;;;;;24.85;5.38;;;9.00;99.90;;;;;;5029611;28;20433;-80
2023/05/17 01:44:17;;;;;;;19.70;4.50;;;8.90;99.90;;;;;;5046037;28;20445;-78
2023/05/17 01:46:43;;;;;;;21.45;4.68;;;9.20;99.90;;;;;;5047090;28;20457;-77
2023/05/17 01:49:22;;;;;;;22.73;5.03;;;8.90;99.90;;;;;;5038855;28;20427;-77
2023/05/17 01:52:12;;;;;;;20.27;3.80;;;8.90;99.90;;;;;;5039665;28;20429;-78
2023/05/17 01:54:55;;;;;;;22.42;5.00;;;8.80;99.90;;;;;;5046028;28;21171;-78
2023/05/17 01:57:27;;;;;;;22.50;4.60;;;8.80;99.90;;;;;;5045671;28;20421;-77
2023/05/17 01:59:58;;;;;;;22.98;3.72;;;8.80;99.90;;;;;;5040355;28;20433;-77
2023/05/17 02:02:24;;;;;;;18.23;3.65;;;9.50;99.90;;;;;;5045199;28;20421;-77
2023/05/17 02:04:50;;;;;;;22.20;3.67;;;8.70;99.90;;;;;;5043128;28;20827;-76
2023/05/17 02:07:16;;;;;;;20.23;4.47;;;8.90;99.90;;;;;;5050702;28;20437;-77
2023/05/17 02:09:41;;;;;;;19.67;3.80;;;8.80;99.90;;;;;;5060063;28;20558;-76
2023/05/17 02:12:07;;;;;;;18.73;3.93;;;8.80;99.90;;;;;;5048802;28;20417;-77
2023/05/17 02:14:33;;;;;;;23.87;5.03;;;8.70;99.90;;;;;;5045481;28;20543;-77
2023/05/17 02:16:58;;;;;;;19.17;3.57;;;8.70;99.90;;;;;;5045964;28;20439;-76
2023/05/17 02:19:24;;;;;;;22.87;5.40;;;8.70;99.90;;;;;;5042943;28;20487;-76
2023/05/17 02:21:50;;;;;;;22.57;5.10;;;8.60;99.90;;;;;;5042786;28;20449;-76
2023/05/17 02:24:15;;;;;;;16.57;3.60;;;8.60;99.90;;;;;;5045156;28;20425;-76
2023/05/17 02:26:42;;;;;;;17.13;3.92;;;8.50;99.90;;;;;;5025913;28;20540;-76
2023/05/17 02:29:09;;;;;;;24.37;5.80;;;8.90;99.90;;;;;;5043766;28;20425;-76
2023/05/17 02:31:35;;;;;;;14.27;3.13;;;8.50;99.90;;;;;;5043876;28;21272;-75
2023/05/17 02:34:01;;;;;;;16.17;3.40;;;8.50;99.90;;;;;;5046319;28;20456;-76
2023/05/17 02:36:26;;;;;;;15.17;3.50;;;8.40;99.90;;;;;;5046774;28;20429;-76
2023/05/17 02:38:52;;;;;;;17.87;3.90;;;8.40;99.90;;;;;;5029253;28;20761;-77
2023/05/17 02:41:18;;;;;;;25.53;4.83;;;8.60;99.90;;;;;;5026608;28;20943;-76
2023/05/17 02:43:44;;;;;;;12.60;3.53;;;8.60;99.90;;;;;;5048314;28;20839;-75
2023/05/17 02:46:09;;;;;;;16.23;3.60;;;8.70;99.90;;;;;;5059980;28;20420;-75
2023/05/17 02:48:35;;;;;;;16.57;4.23;;;8.70;99.90;;;;;;5043715;28;20425;-76
2023/05/17 02:51:01;;;;;;;14.77;3.20;;;9.00;99.90;;;;;;5026296;28;20425;-76
2023/05/17 02:53:26;;;;;;;13.60;2.33;;;8.90;99.90;;;;;;5048770;28;20503;-76
2023/05/17 02:55:52;;;;;;;13.63;3.28;;;8.70;99.90;;;;;;5047999;28;20453;-76
2023/05/17 02:58:17;;;;;;;14.02;3.03;;;8.70;99.90;;;;;;5050578;28;20429;-77
2023/05/17 03:00:46;;;;;;;14.33;2.77;;;8.70;99.90;;;;;;5051724;28;20504;-76
2023/05/17 03:03:12;;;;;;;12.00;2.55;;;8.50;99.90;;;;;;5029184;28;20476;-75
2023/05/17 03:05:37;;;;;;;16.23;2.83;;;8.70;99.90;;;;;;5048943;28;20493;-75
2023/05/17 03:08:03;;;;;;;9.97;1.93;;;8.50;99.90;;;;;;5014414;28;20808;-76
2023/05/17 03:10:29;;;;;;;12.87;2.43;;;8.40;99.90;;;;;;5030746;28;20429;-75
2023/05/17 03:12:54;;;;;;;19.02;3.28;;;9.00;99.90;;;;;;5053206;28;20426;-76
2023/05/17 03:15:20;;;;;;;9.90;2.40;;;8.40;99.90;;;;;;5049730;28;20479;-76
2023/05/17 03:17:46;;;;;;;9.55;2.80;;;8.40;99.90;;;;;;5049424;28;20822;-76
2023/05/17 03:20:11;;;;;;;15.57;3.38;;;8.40;99.90;;;;;;5028988;28;20437;-75
2023/05/17 03:22:37;;;;;;;13.85;3.10;;;8.40;99.90;;;;;;5035142;28;20428;-75
2023/05/17 03:25:04;;;;;;;17.08;3.75;;;8.40;99.90;;;;;;5051071;28;20427;-76
2023/05/17 03:27:30;;;;;;;14.90;2.53;;;8.40;99.90;;;;;;5030994;28;20437;-75
2023/05/17 03:29:55;;;;;;;13.50;3.00;;;8.30;99.90;;;;;;5048135;28;20519;-76
2023/05/17 03:32:21;;;;;;;12.50;2.53;;;8.50;99.90;;;;;;5048354;28;20431;-75
2023/05/17 03:34:47;;;;;;;13.98;2.65;;;8.30;99.90;;;;;;5035606;28;20474;-76
2023/05/17 03:37:13;;;;;;;11.43;3.40;;;8.30;99.90;;;;;;5047127;28;20421;-75
2023/05/17 03:39:38;;;;;;;14.02;3.35;;;8.30;99.90;;;;;;5046527;28;20435;-75
2023/05/17 03:42:05;;;;;;;15.27;3.17;;;8.30;99.90;;;;;;5045586;28;20828;-74
2023/05/17 03:44:30;;;;;;;13.20;2.30;;;8.20;99.90;;;;;;5047019;28;20416;-76
2023/05/17 03:46:56;;;;;;;9.23;1.93;;;8.30;99.90;;;;;;5048030;28;21107;-74
2023/05/17 03:49:22;;;;;;;9.60;2.40;;;8.40;99.90;;;;;;5047562;28;20452;-76
2023/05/17 03:51:47;;;;;;;11.20;1.80;;;8.30;99.90;;;;;;5048120;28;20433;-75
2023/05/17 03:54:13;;;;;;;10.63;2.50;;;8.30;99.90;;;;;;5045752;28;20476;-75
2023/05/17 03:56:38;;;;;;;12.90;2.40;;;9.10;99.90;;;;;;5013934;28;20429;-76
2023/05/17 03:59:04;;;;;;;12.93;2.30;;;8.40;99.90;;;;;;5043494;28;20535;-76
2023/05/17 04:01:30;;;;;;;10.10;2.33;;;8.40;99.90;;;;;;5030009;28;20433;-75
2023/05/17 04:03:55;;;;;;;10.75;2.45;;;8.40;99.90;;;;;;5046959;28;20432;-76
2023/05/17 04:06:21;;;;;;;8.25;2.50;;;8.50;99.90;;;;;;5029472;28;20432;-76
2023/05/17 04:08:47;;;;;;;9.30;1.70;;;8.60;99.90;;;;;;5045979;28;20480;-77
2023/05/17 04:11:12;;;;;;;10.32;2.83;;;8.60;99.90;;;;;;5052700;28;20760;-74
2023/05/17 04:13:42;;;;;;;7.23;1.33;;;8.70;99.90;;;;;;5046890;28;20602;-75
2023/05/17 04:16:08;;;;;;;10.65;1.85;;;8.50;99.90;;;;;;5042194;28;20421;-76
2023/05/17 04:18:35;;;;;;;15.20;2.20;;;8.60;99.90;;;;;;5045331;28;20539;-75
2023/05/17 04:21:02;;;;;;;9.82;1.73;;;8.70;99.90;;;;;;5043513;28;20595;-75
2023/05/17 04:23:28;;;;;;;13.45;2.58;;;8.70;99.90;;;;;;5047084;28;20515;-75
2023/05/17 04:25:53;;;;;;;9.50;1.90;;;8.70;99.90;;;;;;5044389;28;20432;-75
2023/05/17 04:28:20;;;;;;;8.80;1.88;;;9.20;99.90;;;;;;5045291;28;20422;-76
2023/05/17 04:30:46;;;;;;;10.73;2.47;;;8.70;99.90;;;;;;5050489;28;20434;-76
2023/05/17 04:33:12;;;;;;;12.90;3.20;;;8.80;99.90;;;;;;5048551;28;20421;-75
2023/05/17 04:35:40;;;;;;;11.10;2.10;;;8.70;99.90;;;;;;5043445;28;20434;-75
2023/05/17 04:38:06;;;;;;;12.48;2.10;;;9.40;99.90;;;;;;5044791;28;20471;-76
2023/05/17 04:40:32;;;;;;;8.27;1.25;;;8.90;99.90;;;;;;5061129;28;20536;-75
2023/05/17 04:42:58;;;;;;;13.60;2.65;;;8.70;99.90;;;;;;5047523;28;20413;-75
2023/05/17 04:45:24;;;;;;;12.93;2.00;;;8.90;99.90;;;;;;5047025;28;20978;-76
2023/05/17 04:47:51;;;;;;;8.00;1.80;;;8.90;99.90;;;;;;5047109;28;20418;-75
2023/05/17 04:50:17;;;;;;;12.63;2.03;;;8.80;99.90;;;;;;5044452;28;20436;-77
2023/05/17 04:52:44;;;;;;;9.30;2.23;;;8.90;99.90;;;;;;5048413;28;20848;-75
2023/05/17 04:55:10;;;;;;;7.22;1.80;;;8.90;99.90;;;;;;5044331;28;20728;-76
2023/05/17 04:57:36;;;;;;;7.57;1.80;;;9.00;99.90;;;;;;5046244;28;20424;-76
2023/05/17 05:00:12;;;;;;;12.77;2.97;;;9.00;99.90;;;;;;5025569;28;20459;-76
2023/05/17 05:02:38;;;;;;;14.38;3.35;;;9.10;99.90;;;;;;5027017;28;20479;-76
2023/05/17 05:05:05;;;;;;;12.32;2.38;;;9.30;99.90;;;;;;5046098;28;20448;-75
2023/05/17 05:07:31;;;;;;;8.57;2.00;;;9.30;99.90;;;;;;5044609;28;20417;-75
2023/05/17 05:09:57;;;;;;;13.65;2.97;;;9.40;99.90;;;;;;5045869;28;20481;-75
2023/05/17 05:12:23;;;;;;;11.60;1.77;;;9.20;99.90;;;;;;5011601;28;20817;-76
2023/05/17 05:14:49;;;;;;;9.82;2.78;;;9.30;99.90;;;;;;5056862;28;20415;-74
2023/05/17 05:17:15;;;;;;;9.98;1.70;;;9.30;99.90;;;;;;5060611;28;21003;-75
2023/05/17 05:19:40;;;;;;;8.57;2.15;;;9.20;99.90;;;;;;5053504;28;20850;-75
2023/05/17 05:22:06;;;;;;;10.77;1.80;;;9.40;99.90;;;;;;5044701;28;20464;-76
2023/05/17 05:24:32;;;;;;;11.37;2.43;;;9.20;99.90;;;;;;5046184;28;20457;-75
2023/05/17 05:26:57;;;;;;;8.97;2.07;;;9.30;99.90;;;;;;5046118;28;20460;-75
2023/05/17 05:29:23;;;;;;;10.55;2.20;;;9.30;99.90;;;;;;5042325;28;20781;-75
2023/05/17 05:31:49;;;;;;;10.95;2.53;;;9.40;99.90;;;;;;5042280;28;20429;-75
2023/05/17 05:34:14;;;;;;;13.70;2.17;;;10.00;99.90;;;;;;5045200;28;20815;-76
2023/05/17 05:36:40;;;;;;;10.10;1.65;;;9.60;99.90;;;;;;5045114;28;20487;-75
2023/05/17 05:39:07;;;;;;;15.77;2.55;;;9.70;99.90;;;;;;5034899;28;21454;-75
2023/05/17 05:41:32;;;;;;;12.23;2.47;;;10.00;99.90;;;;;;5045036;28;20433;-76
2023/05/17 05:43:58;;;;;;;13.33;2.83;;;9.90;99.90;;;;;;5046309;28;20954;-75
2023/05/17 05:46:25;;;;;;;11.63;2.23;;;10.10;99.90;;;;;;5044791;28;20472;-76
2023/05/17 05:48:50;;;;;;;8.30;1.77;;;10.10;99.90;;;;;;5045307;28;20436;-75
2023/05/17 05:51:18;;;;;;;12.93;2.20;;;10.00;99.90;;;;;;5025225;28;20420;-76
2023/05/17 05:53:43;;;;;;;10.07;2.77;;;10.10;99.90;;;;;;5045217;28;20496;-74
2023/05/17 05:56:09;;;;;;;12.10;2.73;;;10.20;99.90;;;;;;5045307;28;20516;-75
2023/05/17 05:58:35;;;;;;;9.07;2.60;;;10.30;99.90;;;;;;5042520;28;20429;-74
2023/05/17 06:01:01;;;;;;;10.13;1.88;;;9.90;99.90;;;;;;5045047;28;20420;-76
2023/05/17 06:03:27;;;;;;;15.25;3.03;;;10.00;99.90;;;;;;5027837;28;20876;-76
2023/05/17 06:05:54;;;;;;;11.80;2.87;;;10.00;99.90;;;;;;5025760;28;20520;-75
2023/05/17 06:08:19;;;;;;;9.32;2.17;;;9.90;99.90;;;;;;5025711;28;20424;-75
2023/05/17 06:10:45;;;;;;;15.03;3.00;;;10.00;99.90;;;;;;5046837;28;20808;-75
2023/05/17 06:13:11;;;;;;;12.52;2.58;;;9.90;99.90;;;;;;5043970;28;20448;-75
2023/05/17 06:15:37;;;;;;;24.27;3.13;;;9.80;99.90;;;;;;5045489;28;20814;-75
2023/05/17 06:18:02;;;;;;;13.50;2.67;;;9.80;99.90;;;;;;5046574;28;20408;-76
2023/05/17 06:20:28;;;;;;;12.27;3.28;;;9.80;99.90;;;;;;5042864;28;20452;-75
2023/05/17 06:22:54;;;;;;;13.82;2.95;;;9.80;99.90;;;;;;5045029;28;20423;-75
2023/05/17 06:25:19;;;;;;;11.05;2.50;;;9.80;99.90;;;;;;5045830;28;20440;-76
2023/05/17 06:27:45;;;;;;;19.77;3.15;;;9.80;99.90;;;;;;5048405;28;20487;-75
2023/05/17 06:30:11;;;;;;;15.07;3.70;;;10.00;99.90;;;;;;5049271;28;20897;-75
2023/05/17 06:32:37;;;;;;;12.05;2.78;;;10.20;99.90;;;;;;5049356;28;20921;-76
2023/05/17 06:35:03;;;;;;;14.27;2.67;;;10.00;99.90;;;;;;5046797;28;20428;-76
2023/05/17 06:37:29;;;;;;;15.73;3.05;;;9.80;99.90;;;;;;5025123;28;20489;-75
2023/05/17 06:40:09;;;;;;;15.00;3.70;;;9.80;99.90;;;;;;5050779;28;20923;-75
2023/05/17 06:42:35;;;;;;;14.00;2.50;;;9.90;99.90;;;;;;5049472;28;20797;-75
2023/05/17 06:45:00;;;;;;;11.17;2.70;;;9.90;99.90;;;;;;5052347;28;20427;-75
2023/05/17 06:47:26;;;;;;;14.60;3.20;;;10.00;99.90;;;;;;5048747;28;20475;-77
2023/05/17 06:49:51;;;;;;;10.87;2.40;;;10.20;99.90;;;;;;5047837;28;20816;-77
2023/05/17 06:52:17;;;;;;;11.25;2.50;;;10.20;99.90;;;;;;5050096;28;20428;-75
2023/05/17 06:54:43;;;;;;;15.68;2.55;;;10.20;99.90;;;;;;5050027;28;20492;-75
2023/05/17 06:57:09;;;;;;;16.98;4.30;;;10.30;99.90;;;;;;5049346;28;20764;-74
2023/05/17 06:59:35;;;;;;;10.05;2.10;;;10.30;99.90;;;;;;5049661;28;20425;-75
2023/05/17 07:02:01;;;;;;;11.85;2.50;;;10.10;99.90;;;;;;5063810;28;20428;-75
2023/05/17 07:04:27;;;;;;;15.55;2.80;;;10.10;99.90;;;;;;5050155;28;20508;-75
2023/05/17 07:06:52;;;;;;;13.65;2.67;;;10.20;99.90;;;;;;5048357;28;20895;-76
2023/05/17 07:09:20;;;;;;;17.17;3.10;;;10.00;99.90;;;;;;5049185;28;20464;-75
2023/05/17 07:11:45;;;;;;;10.20;2.40;;;10.00;99.90;;;;;;5053460;28;20411;-75
2023/05/17 07:14:11;;;;;;;12.50;3.47;;;9.90;99.90;;;;;;5050168;28;20428;-75
2023/05/17 07:16:37;;;;;;;10.38;2.78;;;10.00;99.90;;;;;;5049169;28;20515;-76
2023/05/17 07:19:03;;;;;;;14.25;3.50;;;10.00;99.90;;;;;;5028449;28;20536;-75
2023/05/17 07:21:28;;;;;;;13.48;2.58;;;9.90;99.90;;;;;;5044760;28;20867;-75
2023/05/17 07:23:54;;;;;;;12.93;2.80;;;10.00;99.90;;;;;;5048118;28;20783;-75
2023/05/17 07:26:20;;;;;;;16.15;2.88;;;9.90;99.90;;;;;;5049518;28;20421;-72
2023/05/17 07:28:46;;;;;;;11.95;3.08;;;10.20;99.90;;;;;;5050117;28;20415;-75
2023/05/17 07:31:12;;;;;;;10.47;2.87;;;10.20;99.90;;;;;;5049594;28;20416;-75
2023/05/17 07:33:38;;;;;;;11.27;2.63;;;10.30;99.90;;;;;;5050811;28;20786;-76
2023/05/17 07:36:05;;;;;;;12.43;2.60;;;10.70;99.90;;;;;;5046450;28;21928;-75
2023/05/17 07:38:31;;;;;;;14.87;2.90;;;10.90;99.90;;;;;;5046572;28;20481;-77
2023/05/17 07:40:57;;;;;;;12.98;2.53;;;11.10;99.90;;;;;;5047103;28;20432;-77
2023/05/17 07:43:23;;;;;;;12.73;3.20;;;11.40;99.90;;;;;;5046825;28;20429;-78
2023/05/17 07:45:49;;;;;;;11.65;2.55;;;11.30;99.90;;;;;;5046928;28;20472;-79
2023/05/17 07:48:14;;;;;;;9.83;2.40;;;11.20;99.90;;;;;;5048639;28;20557;-76
2023/05/17 07:50:40;;;;;;;9.07;2.45;;;11.20;99.90;;;;;;5035592;28;20433;-78
2023/05/17 07:53:06;;;;;;;12.07;2.78;;;11.40;99.90;;;;;;5030104;28;20935;-77
2023/05/17 07:55:31;;;;;;;11.23;2.90;;;11.20;99.90;;;;;;5048959;28;20417;-75
2023/05/17 07:57:57;;;;;;;13.32;2.78;;;11.20;99.90;;;;;;5049007;28;20512;-71
2023/05/17 08:00:23;;;;;;;12.40;2.70;;;11.10;99.90;;;;;;5048427;28;20433;-76
2023/05/17 08:02:49;;;;;;;11.63;2.88;;;11.30;99.90;;;;;;5048944;28;20424;-78
2023/05/17 08:05:14;;;;;;;12.23;2.50;;;11.80;99.90;;;;;;5057408;28;20434;-79
2023/05/17 08:07:40;;;;;;;10.18;1.92;;;11.70;99.90;;;;;;5046646;28;20634;-79
2023/05/17 08:10:06;;;;;;;9.63;3.00;;;11.70;99.90;;;;;;5046477;28;20844;-79
2023/05/17 08:12:32;;;;;;;18.25;3.40;;;11.60;99.90;;;;;;5065245;28;20428;-78
2023/05/17 08:14:58;;;;;;;10.90;2.45;;;11.40;99.90;;;;;;5049666;28;20433;-77
2023/05/17 08:17:24;;;;;;;10.45;2.65;;;11.40;99.90;;;;;;5047727;28;20421;-77
2023/05/17 08:19:49;;;;;;;18.15;3.33;;;11.50;99.90;;;;;;5044274;28;20975;-77
2023/05/17 08:22:15;;;;;;;16.15;4.40;;;11.50;99.90;;;;;;5047831;28;20761;-78
2023/05/17 08:24:43;;;;;;;16.15;2.58;;;11.40;99.90;;;;;;5048512;28;20425;-79
2023/05/17 08:27:09;;;;;;;11.80;2.78;;;11.30;99.90;;;;;;5028123;28;20987;-78
2023/05/17 08:29:36;;;;;;;11.65;2.42;;;11.10;99.90;;;;;;5046447;28;20512;-79
2023/05/17 08:32:02;;;;;;;18.75;4.47;;;11.30;99.90;;;;;;5047609;28;20512;-78
2023/05/17 08:34:27;;;;;;;13.50;2.50;;;11.40;99.90;;;;;;5042610;28;20862;-78
2023/05/17 08:36:53;;;;;;;14.25;3.00;;;11.40;99.90;;;;;;5059288;28;20447;-77
2023/05/17 08:39:19;;;;;;;11.77;3.15;;;11.30;99.90;;;;;;5047100;28;20468;-79
2023/05/17 08:41:46;;;;;;;14.68;3.10;;;11.20;99.90;;;;;;5047281;28;20452;-78
2023/05/17 08:44:15;;;;;;;15.02;2.85;;;11.10;99.90;;;;;;5045957;28;20417;-79
2023/05/17 08:46:43;;;;;;;11.77;3.03;;;11.00;99.90;;;;;;5027502;28;20534;-77
2023/05/17 08:49:11;;;;;;;15.18;3.10;;;11.20;99.90;;;;;;5028313;28;20433;-77
2023/05/17 08:51:38;;;;;;;13.30;2.92;;;11.70;99.90;;;;;;5027245;28;20429;-77
2023/05/17 08:54:06;;;;;;;15.25;3.63;;;11.60;99.90;;;;;;5045960;28;20425;-77
2023/05/17 08:56:34;;;;;;;15.63;2.70;;;12.00;99.90;;;;;;5044903;28;20539;-78
2023/05/17 08:59:01;;;;;;;14.67;2.80;;;11.20;99.90;;;;;;5046292;28;20883;-77
2023/05/17 09:01:28;;;;;;;15.32;2.78;;;11.10;99.90;;;;;;5044733;28;20759;-77
2023/05/17 09:03:54;;;;;;;11.27;2.92;;;11.40;99.90;;;;;;5045020;28;20501;-78
2023/05/17 09:06:22;;;;;;;12.48;2.67;;;11.60;99.90;;;;;;5035796;28;20526;-78
2023/05/17 09:08:57;;;;;;;8.88;2.65;;;11.20;99.90;;;;;;5024896;28;20425;-78
2023/05/17 09:11:26;;;;;;;9.40;2.13;;;12.40;99.90;;;;;;5042631;28;20428;-81
2023/05/17 09:13:52;;;;;;;14.48;4.15;;;12.00;99.90;;;;;;5045456;28;20421;-77
2023/05/17 09:16:20;;;;;;;12.50;3.13;;;11.70;99.90;;;;;;5040711;28;20492;-78
2023/05/17 09:18:54;;;;;;;9.43;2.83;;;12.50;99.90;;;;;;5030979;28;20438;-77
2023/05/17 09:21:21;;;;;;;14.07;3.13;;;11.80;99.90;;;;;;5045890;28;20439;-77
2023/05/17 09:23:47;;;;;;;9.32;3.45;;;11.70;99.90;;;;;;5044952;28;20495;-78
2023/05/17 09:26:13;;;;;;;12.15;2.90;;;12.20;99.90;;;;;;5046053;28;20799;-75
2023/05/17 09:28:42;;;;;;;10.20;2.73;;;12.50;99.90;;;;;;5047650;28;20823;-76
2023/05/17 09:31:09;;;;;;;9.05;2.33;;;11.80;99.90;;;;;;5030831;28;20499;-77
2023/05/17 09:33:45;;;;;;;13.85;3.50;;;12.40;99.90;;;;;;5060212;28;20827;-77
2023/05/17 09:36:20;;;;;;;8.45;2.20;;;12.80;99.90;;;;;;5029604;28;20474;-77
2023/05/17 09:38:53;;;;;;;9.77;2.47;;;12.50;99.90;;;;;;5027528;28;20426;-78
2023/05/17 09:41:20;;;;;;;9.75;2.22;;;12.30;99.90;;;;;;5035681;28;20481;-78
2023/05/17 09:43:46;;;;;;;10.02;2.55;;;11.80;99.90;;;;;;5046143;28;20430;-77
2023/05/17 09:46:14;;;;;;;12.20;2.47;;;12.00;99.90;;;;;;5028360;28;20425;-75
2023/05/17 09:48:39;;;;;;;7.13;1.75;;;11.70;99.90;;;;;;5044794;28;20429;-77
2023/05/17 09:51:06;;;;;;;8.18;2.70;;;11.70;99.90;;;;;;5060986;28;20536;-76
2023/05/17 09:53:38;;;;;;;9.45;2.13;;;12.20;99.90;;;;;;5046494;28;20471;-78
2023/05/17 09:56:05;;;;;;;11.93;3.17;;;12.10;99.90;;;;;;5046361;28;20452;-78
2023/05/17 09:58:32;;;;;;;11.00;2.20;;;11.60;99.90;;;;;;5045257;28;20453;-77
2023/05/17 10:01:00;;;;;;;10.48;2.33;;;12.10;99.90;;;;;;5032211;28;20424;-77
2023/05/17 10:03:30;;;;;;;7.40;1.65;;;12.50;99.90;;;;;;5052738;28;20490;-79
2023/05/17 10:05:57;;;;;;;8.98;2.63;;;12.00;99.90;;;;;;5029593;28;20551;-78
2023/05/17 10:08:26;;;;;;;10.95;2.30;;;12.30;99.90;;;;;;5048112;28;20449;-78
2023/05/17 10:11:06;;;;;;;11.05;2.25;;;11.80;99.90;;;;;;5051564;28;20419;-76
2023/05/17 10:14:17;;;;;;;9.35;2.25;;;12.70;99.90;;;;;;5046425;28;20492;-77
2023/05/17 10:16:43;;;;;;;11.35;2.78;;;12.90;99.90;;;;;;5033859;28;20453;-76
2023/05/17 10:19:11;;;;;;;9.90;2.03;;;13.20;99.90;;;;;;5044200;28;20437;-79
2023/05/17 10:21:38;;;;;;;10.38;2.45;;;13.00;99.90;;;;;;5044198;28;20921;-74
2023/05/17 10:24:05;;;;;;;9.05;1.77;;;12.90;99.90;;;;;;5046115;28;20509;-77
2023/05/17 10:26:31;;;;;;;10.52;2.28;;;12.40;99.90;;;;;;5045657;28;20429;-73
2023/05/17 10:29:02;;;;;;;9.73;1.98;;;12.10;99.90;;;;;;5045649;28;20765;-73
2023/05/17 10:31:32;;;;;;;11.05;2.13;;;12.30;99.90;;;;;;5047452;28;20425;-73
2023/05/17 10:34:01;;;;;;;10.52;2.17;;;12.30;99.90;;;;;;5044912;28;20432;-72
2023/05/17 10:36:27;;;;;;;10.15;2.28;;;12.70;99.90;;;;;;5031025;28;20446;-73
2023/05/17 10:38:54;;;;;;;9.00;2.20;;;12.60;99.90;;;;;;5027747;28;20566;-74
2023/05/17 10:41:23;;;;;;;11.43;2.60;;;12.30;99.90;;;;;;5045642;28;20432;-73
2023/05/17 10:43:49;;;;;;;7.30;2.08;;;12.70;99.90;;;;;;5032394;28;20850;-74
2023/05/17 10:46:21;;;;;;;12.50;3.10;;;12.60;99.90;;;;;;5060723;28;20429;-74
2023/05/17 10:48:50;;;;;;;9.40;2.08;;;13.00;99.90;;;;;;5043424;28;20508;-75
2023/05/17 10:51:39;;;;;;;15.30;3.58;;;13.30;99.90;;;;;;5045240;28;20436;-73
2023/05/17 10:54:11;;;;;;;12.30;3.78;;;12.70;99.90;;;;;;5024967;28;20497;-73
2023/05/17 10:56:45;;;;;;;12.50;2.28;;;13.10;99.90;;;;;;5037973;28;20448;-74
2023/05/17 10:59:23;;;;;;;9.47;2.60;;;12.70;99.90;;;;;;5046075;28;20429;-73
2023/05/17 11:01:57;;;;;;;7.63;2.33;;;12.80;99.90;;;;;;5049612;28;20808;-73
2023/05/17 11:04:35;;;;;;;11.68;2.30;;;12.80;99.90;;;;;;5045232;28;21017;-73
2023/05/17 11:07:16;;;;;;;11.77;3.35;;;13.00;99.90;;;;;;5048570;28;20427;-73
2023/05/17 11:09:48;;;;;;;9.63;2.07;;;13.00;99.90;;;;;;5046130;28;20472;-73
2023/05/17 11:12:14;;;;;;;11.63;2.35;;;13.20;99.90;;;;;;5049595;28;20425;-74
2023/05/17 11:14:52;;;;;;;8.50;2.40;;;13.20;99.90;;;;;;5047877;28;20417;-74
2023/05/17 11:17:20;;;;;;;10.32;2.80;;;12.90;99.90;;;;;;5051460;28;20489;-74
2023/05/17 11:20:08;;;;;;;14.07;2.70;;;12.70;99.90;;;;;;5069225;28;20416;-75
2023/05/17 11:22:39;;;;;;;11.75;2.80;;;12.80;99.90;;;;;;5048006;28;20428;-74
2023/05/17 11:25:11;;;;;;;10.70;2.47;;;12.80;99.90;;;;;;5049591;28;20402;-74
2023/05/17 11:27:51;;;;;;;10.90;2.60;;;12.80;99.90;;;;;;5031935;28;20554;-74
2023/05/17 11:30:28;;;;;;;11.50;2.30;;;12.80;99.90;;;;;;5050115;28;20439;-75
2023/05/17 11:33:06;;;;;;;11.57;2.60;;;12.30;99.90;;;;;;5051132;28;20425;-73
2023/05/17 11:35:36;;;;;;;11.35;3.05;;;12.40;99.90;;;;;;5049059;28;20935;-74
2023/05/17 11:38:22;;;;;;;10.67;2.23;;;12.00;99.90;;;;;;5048209;28;20425;-75
2023/05/17 11:40:51;;;;;;;9.43;3.13;;;11.90;99.90;;;;;;5047538;28;20418;-75
2023/05/17 11:43:17;;;;;;;14.70;2.38;;;12.40;99.90;;;;;;5049353;28;20519;-76
2023/05/17 11:45:51;;;;;;;10.45;2.47;;;12.50;99.90;;;;;;5049949;28;20422;-73
2023/05/17 11:48:20;;;;;;;10.82;2.13;;;12.40;99.90;;;;;;5048444;28;20776;-75
2023/05/17 11:50:47;;;;;;;13.80;3.20;;;12.20;99.90;;;;;;5041849;28;20433;-74
2023/05/17 11:53:13;;;;;;;11.95;2.25;;;12.20;99.90;;;;;;5030349;28;20533;-74
2023/05/17 11:55:40;;;;;;;10.23;2.30;;;12.40;99.90;;;;;;5048623;28;20860;-74
2023/05/17 11:58:10;;;;;;;9.13;1.90;;;12.00;99.90;;;;;;5030501;28;20421;-73
2023/05/17 12:00:39;;;;;;;14.70;2.77;;;12.40;99.90;;;;;;5047999;28;20924;-73
2023/05/17 12:03:25;;;;;;;12.88;3.40;;;12.10;99.90;;;;;;5048083;28;20448;-75
2023/05/17 12:06:00;;;;;;;16.02;3.13;;;12.40;99.90;;;;;;5050134;28;20559;-73
2023/05/17 12:08:26;;;;;;;11.23;2.53;;;12.40;99.90;;;;;;5057416;28;20437;-74
2023/05/17 12:10:55;;;;;;;10.73;2.45;;;12.80;99.90;;;;;;5026198;28;20433;-74
2023/05/17 12:13:21;;;;;;;12.73;2.65;;;13.30;99.90;;;;;;5047934;28;20559;-73
2023/05/17 12:16:21;;;;;;;10.65;2.67;;;12.80;99.90;;;;;;5048239;28;20937;-75
2023/05/17 12:18:49;;;;;;;9.38;1.85;;;12.80;99.90;;;;;;5042568;28;20558;-75
2023/05/17 12:21:17;;;;;;;7.97;2.17;;;12.70;99.90;;;;;;5030794;28;20433;-74
2023/05/17 12:23:44;;;;;;;12.95;2.20;;;12.70;99.90;;;;;;5047751;28;20768;-74
2023/05/17 12:26:21;;;;;;;11.47;2.73;;;13.10;99.90;;;;;;5030262;28;20562;-74
2023/05/17 12:28:56;;;;;;;9.23;2.05;;;13.50;99.90;;;;;;5047376;28;20430;-75
2023/05/17 12:31:28;;;;;;;9.48;2.47;;;12.90;99.90;;;;;;5033061;28;20432;-73
2023/05/17 12:33:55;;;;;;;12.90;2.22;;;12.80;99.90;;;;;;5047182;28;20425;-72
2023/05/17 12:36:21;;;;;;;9.70;2.03;;;12.50;99.90;;;;;;5047306;28;20431;-76
2023/05/17 12:38:48;;;;;;;12.98;3.10;;;12.80;99.90;;;;;;5060930;28;20997;-75
2023/05/17 12:41:15;;;;;;;10.15;2.28;;;13.70;99.90;;;;;;5031746;28;20421;-76
2023/05/17 12:43:44;;;;;;;8.75;1.77;;;13.40;99.90;;;;;;5052948;28;20424;-75
2023/05/17 12:46:17;;;;;;;10.50;2.45;;;13.00;99.90;;;;;;5054143;28;20465;-77
2023/05/17 12:48:48;;;;;;;18.52;2.50;;;13.40;99.90;;;;;;5059513;28;20530;-75